Time;durP1;ratioP1;P1;durP2;ratioP2;P2;SDS_P1;SDS_P2;PMS_P1;PMS_P2;Temp;Humidity;BMP_temperature;BMP_pressure;BME280_temperature;BME280_humidity;BME280_pressure;Samples;Min_cycle;Max_cycle;Signal;HPM_P1;HPM_P2
2022/01/09 00:01:11;;;;;;;0.82;0.50;;;3.00;99.90;;;1.96;100.00;95312.84;4971278;28;20054;-70
2022/01/09 00:03:39;;;;;;;1.45;0.80;;;3.10;99.90;;;1.99;100.00;95321.25;4973132;28;20104;-70
2022/01/09 00:06:07;;;;;;;1.58;0.60;;;3.10;99.90;;;2.03;100.00;95307.41;4972418;28;20066;-71
2022/01/09 00:08:35;;;;;;;3.08;0.45;;;3.20;99.90;;;2.29;100.00;95295.97;4970421;28;20057;-70
2022/01/09 00:11:02;;;;;;;1.05;0.50;;;3.30;99.90;;;2.28;100.00;95302.00;4987877;28;20129;-70
2022/01/09 00:13:29;;;;;;;2.05;0.50;;;3.40;99.90;;;2.46;100.00;95289.22;4972575;28;20050;-70
2022/01/09 00:15:56;;;;;;;1.27;0.50;;;3.50;99.90;;;2.37;100.00;95287.09;4979175;28;20043;-71
2022/01/09 00:18:24;;;;;;;0.90;0.40;;;3.60;99.90;;;2.43;100.00;95290.19;4973318;28;20050;-70
2022/01/09 00:20:52;;;;;;;1.15;0.30;;;3.60;99.90;;;2.48;100.00;95295.09;4973586;28;20066;-70
2022/01/09 00:23:20;;;;;;;1.05;0.30;;;3.60;99.90;;;2.51;100.00;95287.28;4953151;28;20062;-71
2022/01/09 00:25:47;;;;;;;0.88;0.40;;;3.60;99.90;;;2.59;100.00;95263.88;4971910;28;20050;-70
2022/01/09 00:28:18;;;;;;;3.13;0.38;;;3.80;99.90;;;2.52;100.00;95283.81;4971904;28;20047;-70
2022/01/09 00:30:45;;;;;;;1.70;0.40;;;3.70;99.90;;;2.59;100.00;95256.19;4978166;28;20047;-70
2022/01/09 00:33:15;;;;;;;0.82;0.30;;;3.80;99.90;;;2.63;100.00;95265.38;4978757;28;20053;-70
2022/01/09 00:35:43;;;;;;;1.77;0.52;;;3.80;99.90;;;2.63;100.00;95285.88;4972706;28;20121;-70
2022/01/09 00:38:10;;;;;;;4.30;0.30;;;3.80;99.90;;;2.63;100.00;95262.81;4975350;28;20124;-70
2022/01/09 00:40:38;;;;;;;2.17;0.47;;;3.90;99.90;;;2.67;100.00;95265.16;4971286;28;20500;-70
2022/01/09 00:43:09;;;;;;;1.85;0.68;;;3.80;99.90;;;2.71;100.00;95274.38;4979828;28;20495;-70
2022/01/09 00:45:38;;;;;;;1.88;0.60;;;3.90;99.90;;;2.69;100.00;95267.63;4973449;28;20047;-70
2022/01/09 00:48:07;;;;;;;3.58;0.65;;;3.90;99.90;;;2.81;100.00;95277.28;4975800;28;20153;-70
2022/01/09 00:50:37;;;;;;;0.80;0.25;;;4.00;99.90;;;2.81;100.00;95287.53;4975457;28;20403;-70
2022/01/09 00:53:05;;;;;;;0.95;0.40;;;4.00;99.90;;;2.82;100.00;95283.25;4974912;28;20050;-70
2022/01/09 00:55:33;;;;;;;0.38;0.30;;;4.10;99.90;;;2.81;100.00;95256.81;4971554;28;20110;-70
2022/01/09 00:58:02;;;;;;;0.75;0.32;;;4.00;99.90;;;2.96;100.00;95251.81;4975538;28;20117;-70
2022/01/09 01:00:30;;;;;;;0.28;0.22;;;4.10;99.90;;;2.93;100.00;95275.88;4976678;28;20050;-70
2022/01/09 01:03:01;;;;;;;1.70;0.40;;;4.10;99.90;;;2.91;100.00;95216.16;4973665;28;20127;-70
2022/01/09 01:05:36;;;;;;;0.70;0.40;;;4.10;99.90;;;2.86;100.00;95272.78;4976553;28;20149;-71
2022/01/09 01:08:05;;;;;;;1.63;0.40;;;4.10;99.90;;;2.94;100.00;95292.88;4970145;28;20055;-70
2022/01/09 01:10:32;;;;;;;1.15;0.22;;;4.20;99.90;;;2.86;100.00;95252.28;4977098;28;20046;-71
2022/01/09 01:12:59;;;;;;;2.47;0.40;;;4.10;99.90;;;2.92;100.00;95267.34;4971294;28;20070;-71
2022/01/09 01:15:27;;;;;;;0.85;0.30;;;4.10;99.90;;;2.97;100.00;95264.56;4977649;28;20042;-70
2022/01/09 01:17:54;;;;;;;0.80;0.40;;;4.20;99.90;;;2.97;100.00;95279.13;4971930;28;20166;-70
2022/01/09 01:20:23;;;;;;;0.80;0.40;;;4.20;99.90;;;2.99;100.00;95284.97;4969380;28;20054;-70
2022/01/09 01:22:58;;;;;;;1.75;0.43;;;4.20;99.90;;;3.04;100.00;95280.47;4974798;28;20204;-70
2022/01/09 01:25:27;;;;;;;1.08;0.40;;;4.30;99.90;;;3.01;100.00;95262.66;4992117;28;20055;-70
2022/01/09 01:27:56;;;;;;;1.20;0.30;;;4.30;99.90;;;2.96;100.00;95283.38;4976835;28;20057;-70
2022/01/09 01:30:26;;;;;;;0.93;0.40;;;4.20;99.90;;;2.98;100.00;95263.63;4974735;28;20074;-71
2022/01/09 01:32:54;;;;;;;0.80;0.50;;;4.20;99.90;;;2.97;100.00;95277.38;4980096;28;20043;-69
2022/01/09 01:35:21;;;;;;;0.47;0.30;;;4.20;99.90;;;2.96;100.00;95288.50;4974321;28;20066;-71
2022/01/09 01:37:50;;;;;;;1.08;0.50;;;4.10;99.90;;;3.00;100.00;95273.81;4982336;28;20087;-71
2022/01/09 01:40:19;;;;;;;0.50;0.30;;;4.30;99.90;;;2.99;100.00;95280.69;4997640;28;20042;-71
2022/01/09 01:42:46;;;;;;;0.40;0.30;;;4.20;99.90;;;2.95;100.00;95266.38;4977039;28;20052;-71
2022/01/09 01:45:14;;;;;;;0.88;0.40;;;4.20;99.90;;;2.93;100.00;95297.19;4983437;28;20125;-71
2022/01/09 01:47:42;;;;;;;1.08;0.32;;;4.20;99.90;;;2.93;100.00;95276.69;4982137;28;20478;-69
2022/01/09 01:50:16;;;;;;;1.17;0.40;;;4.20;99.90;;;3.00;100.00;95302.00;4979351;28;20565;-71
2022/01/09 01:52:51;;;;;;;1.00;0.40;;;4.20;99.90;;;2.93;100.00;95294.63;4977470;28;20561;-68
2022/01/09 01:55:22;;;;;;;4.03;0.52;;;4.20;99.90;;;2.96;100.00;95300.50;4994089;28;20070;-71
2022/01/09 01:57:52;;;;;;;0.90;0.50;;;4.20;99.90;;;2.92;100.00;95305.78;4975604;28;20415;-68
2022/01/09 02:00:20;;;;;;;2.03;0.57;;;4.20;99.90;;;3.00;100.00;95295.16;4985894;28;20050;-70
2022/01/09 02:02:48;;;;;;;2.00;0.30;;;4.20;99.90;;;3.01;100.00;95317.31;4977426;28;20046;-70
2022/01/09 02:05:16;;;;;;;1.42;0.30;;;4.20;99.90;;;2.99;100.00;95323.41;4978934;28;20455;-70
2022/01/09 02:07:44;;;;;;;2.38;0.30;;;4.20;99.90;;;2.95;100.00;95321.91;4998391;28;20055;-70
2022/01/09 02:10:12;;;;;;;1.27;0.30;;;4.20;99.90;;;2.96;100.00;95339.75;4975689;28;20339;-70
2022/01/09 02:12:40;;;;;;;1.13;0.35;;;4.10;99.90;;;2.98;100.00;95316.63;4982070;28;20073;-70
2022/01/09 02:15:32;;;;;;;0.95;0.20;;;4.20;99.90;;;2.96;100.00;95341.50;4976680;28;20051;-70
2022/01/09 02:18:03;;;;;;;0.75;0.30;;;4.10;99.90;;;2.94;100.00;95356.94;4978116;28;20414;-70
2022/01/09 02:20:31;;;;;;;2.78;0.40;;;4.20;99.90;;;3.00;100.00;95343.84;4973477;28;20042;-70
2022/01/09 02:22:59;;;;;;;1.98;0.50;;;4.20;99.90;;;2.97;100.00;95336.31;4980626;28;20084;-71
2022/01/09 02:25:28;;;;;;;1.33;0.40;;;4.20;99.90;;;3.03;100.00;95345.41;4989912;28;20130;-70
2022/01/09 02:27:56;;;;;;;1.38;0.50;;;4.20;99.90;;;3.09;100.00;95366.47;4979579;28;20050;-70
2022/01/09 02:30:26;;;;;;;0.90;0.35;;;4.30;99.90;;;3.18;100.00;95382.31;4974972;28;20078;-71
2022/01/09 02:32:53;;;;;;;2.45;0.35;;;4.30;99.90;;;3.14;100.00;95379.06;4976244;28;20517;-71
2022/01/09 02:35:23;;;;;;;1.65;0.40;;;4.30;99.90;;;3.14;100.00;95387.56;4977919;28;20046;-71
2022/01/09 02:37:50;;;;;;;2.78;0.65;;;4.30;99.90;;;3.21;100.00;95377.84;4974220;28;20166;-71
2022/01/09 02:40:18;;;;;;;1.63;0.50;;;4.30;99.90;;;3.18;100.00;95401.06;4984941;28;20057;-71
2022/01/09 02:42:47;;;;;;;1.75;0.40;;;4.30;99.90;;;3.17;100.00;95398.56;4975791;28;20051;-70
2022/01/09 02:45:17;;;;;;;0.95;0.40;;;4.40;99.90;;;3.13;100.00;95429.50;4980890;28;20148;-70
2022/01/09 02:47:46;;;;;;;1.45;0.40;;;4.40;99.90;;;3.12;100.00;95414.19;4982127;28;20081;-70
2022/01/09 02:52:58;;;;;;;1.92;0.57;;;4.40;99.90;;;3.12;100.00;95443.22;4986257;28;20062;-70
2022/01/09 02:55:29;;;;;;;0.52;0.30;;;4.30;99.90;;;3.13;100.00;95432.06;4978591;28;20062;-71
2022/01/09 02:58:00;;;;;;;1.95;0.50;;;4.30;99.90;;;3.08;100.00;95467.34;4974122;28;20039;-70
2022/01/09 03:00:35;;;;;;;1.13;0.32;;;4.30;99.90;;;3.02;100.00;95472.75;4974136;28;20055;-70
2022/01/09 03:03:03;;;;;;;1.00;0.40;;;4.30;99.90;;;3.04;100.00;95473.50;4999987;28;20506;-70
2022/01/09 03:05:31;;;;;;;1.42;0.52;;;4.30;99.90;;;3.04;100.00;95482.94;4975593;28;20047;-70
2022/01/09 03:07:59;;;;;;;2.38;0.30;;;4.20;99.90;;;2.97;100.00;95507.19;4978173;28;20145;-70
2022/01/09 03:10:27;;;;;;;1.95;0.40;;;4.20;99.90;;;3.00;100.00;95507.03;4972309;28;20514;-71
2022/01/09 03:12:56;;;;;;;1.02;0.40;;;4.20;99.90;;;2.92;100.00;95503.09;4981122;28;20054;-70
2022/01/09 03:15:25;;;;;;;1.98;0.50;;;4.20;99.90;;;2.93;100.00;95519.28;4987831;28;20415;-70
2022/01/09 03:17:53;;;;;;;0.82;0.28;;;4.10;99.90;;;2.87;100.00;95528.09;4995235;28;20331;-70
2022/01/09 03:20:27;;;;;;;1.58;0.50;;;4.10;99.90;;;2.86;100.00;95533.28;4974506;28;20057;-70
2022/01/09 03:22:56;;;;;;;2.13;0.77;;;4.10;99.90;;;2.84;100.00;95551.28;4991166;28;20474;-70
2022/01/09 03:25:26;;;;;;;1.52;0.30;;;4.10;99.90;;;2.87;100.00;95545.19;4971875;28;20058;-70
2022/01/09 03:27:56;;;;;;;0.88;0.40;;;4.10;99.90;;;2.79;100.00;95563.47;4974516;28;20125;-70
2022/01/09 03:30:25;;;;;;;1.48;0.40;;;4.10;99.90;;;2.74;100.00;95565.41;4995295;28;20050;-70
2022/01/09 03:32:55;;;;;;;0.43;0.30;;;4.00;99.90;;;2.65;100.00;95576.06;5003017;28;20061;-70
2022/01/09 03:35:28;;;;;;;0.38;0.20;;;4.00;99.90;;;2.68;100.00;95570.78;4992758;28;20105;-70
2022/01/09 03:37:59;;;;;;;0.45;0.20;;;3.90;99.90;;;2.67;100.00;95585.34;4984488;28;20129;-71
2022/01/09 03:40:28;;;;;;;3.10;0.40;;;3.80;99.90;;;2.60;100.00;95601.88;4991639;28;20057;-70
2022/01/09 03:43:14;;;;;;;1.30;0.40;;;3.90;99.90;;;2.59;100.00;95596.81;4985616;28;20138;-70
2022/01/09 03:45:42;;;;;;;;;;;3.80;99.90;;;2.60;100.00;95589.06;4977821;28;20058;-70
2022/01/09 03:48:09;;;;;;;0.38;0.20;;;3.70;99.90;;;2.51;100.00;95608.22;4980273;28;20335;-70
2022/01/09 03:50:37;;;;;;;1.20;0.20;;;3.80;99.90;;;2.44;100.00;95626.44;4977345;28;20054;-71
2022/01/09 03:53:11;;;;;;;0.30;0.20;;;3.70;99.90;;;2.43;100.00;95628.19;4973847;28;20783;-70
2022/01/09 03:55:46;;;;;;;0.20;0.20;;;3.70;99.90;;;2.43;100.00;95627.34;4974114;28;20085;-71
2022/01/09 03:58:13;;;;;;;0.40;0.20;;;3.70;99.90;;;2.37;100.00;95648.09;4977015;28;20125;-71
2022/01/09 04:00:42;;;;;;;0.45;0.30;;;3.60;99.90;;;2.25;100.00;95646.88;4974121;28;20082;-71
2022/01/09 04:03:16;;;;;;;0.13;0.13;;;3.60;99.90;;;2.20;100.00;95656.47;4976048;28;20105;-71
2022/01/09 04:05:45;;;;;;;0.10;0.10;;;3.50;99.90;;;2.15;100.00;95666.88;4973223;28;20061;-70
2022/01/09 04:08:16;;;;;;;0.50;0.20;;;3.50;99.90;;;2.05;100.00;95666.44;4978705;28;20054;-70
2022/01/09 04:10:44;;;;;;;0.20;0.20;;;3.30;99.90;;;2.03;100.00;95686.13;4997632;28;20039;-71
2022/01/09 04:13:13;;;;;;;1.55;0.50;;;3.30;99.90;;;1.96;100.00;95712.00;4976882;28;20109;-70
2022/01/09 04:15:47;;;;;;;0.93;0.20;;;3.20;99.90;;;1.94;100.00;95700.97;4987481;28;20051;-71
2022/01/09 04:18:23;;;;;;;0.70;0.30;;;3.30;99.90;;;1.96;100.00;95688.97;4975879;28;20043;-70
2022/01/09 04:20:52;;;;;;;2.45;0.10;;;3.20;99.90;;;1.96;100.00;95704.31;4973610;28;20104;-70
2022/01/09 04:23:21;;;;;;;2.38;0.50;;;3.20;99.90;;;2.00;100.00;95696.47;4975813;28;20082;-70
2022/01/09 04:25:48;;;;;;;1.35;0.30;;;3.30;99.90;;;2.00;100.00;95716.94;4991576;28;20108;-70
2022/01/09 04:28:17;;;;;;;2.53;0.40;;;3.20;99.90;;;1.99;100.00;95740.03;4972216;28;20082;-71
2022/01/09 04:30:45;;;;;;;3.75;0.80;;;3.30;99.90;;;2.02;100.00;95719.44;4982423;28;20129;-70
2022/01/09 04:33:16;;;;;;;2.97;0.63;;;3.30;99.90;;;2.10;100.00;95753.25;4978365;28;20039;-70
2022/01/09 04:35:44;;;;;;;8.10;0.68;;;3.30;99.90;;;2.13;100.00;95732.66;4979252;28;20133;-70
2022/01/09 04:38:12;;;;;;;5.70;0.88;;;3.30;99.90;;;2.11;100.00;95724.19;4971995;28;20640;-70
2022/01/09 04:40:40;;;;;;;10.10;1.42;;;3.40;99.90;;;2.18;100.00;95748.66;4991725;28;20085;-70
2022/01/09 04:43:10;;;;;;;3.42;0.70;;;3.30;99.90;;;2.23;100.00;95746.75;4972753;28;20146;-70
2022/01/09 04:45:38;;;;;;;7.47;1.30;;;3.30;99.90;;;2.21;100.00;95763.06;4996258;28;20054;-70
2022/01/09 04:48:11;;;;;;;9.70;1.52;;;3.30;99.90;;;2.28;100.00;95760.22;4972592;28;20394;-70
2022/01/09 04:50:42;;;;;;;7.80;1.00;;;3.40;99.90;;;2.29;100.00;95784.91;4974167;28;20050;-70
2022/01/09 04:53:09;;;;;;;8.57;1.35;;;3.40;99.90;;;2.35;100.00;95798.38;4979248;28;20053;-70
2022/01/09 04:55:46;;;;;;;10.07;1.40;;;3.50;99.90;;;2.35;100.00;95783.88;4972209;28;20050;-70
2022/01/09 04:58:14;;;;;;;8.15;1.10;;;3.60;99.90;;;2.36;100.00;95769.31;4995407;28;20133;-70
2022/01/09 05:00:43;;;;;;;9.70;1.35;;;3.50;99.90;;;2.37;100.00;95770.97;4974078;28;20090;-70
2022/01/09 05:03:13;;;;;;;6.50;1.25;;;3.50;99.90;;;2.37;100.00;95789.72;4981357;28;20050;-70
2022/01/09 05:05:41;;;;;;;15.15;1.40;;;3.50;99.90;;;2.41;100.00;95788.72;4976034;28;20081;-70
2022/01/09 05:08:09;;;;;;;7.70;1.55;;;3.60;99.90;;;2.39;100.00;95800.75;4979865;28;20054;-70
2022/01/09 05:10:36;;;;;;;7.45;1.17;;;3.60;99.90;;;2.40;100.00;95802.44;4976997;28;20105;-70
2022/01/09 05:13:03;;;;;;;9.88;1.20;;;3.60;99.90;;;2.48;100.00;95800.38;4977898;28;20042;-70
2022/01/09 05:15:31;;;;;;;8.27;1.50;;;3.60;99.90;;;2.43;100.00;95812.53;4987696;28;20122;-70
2022/01/09 05:18:00;;;;;;;9.90;0.93;;;3.60;99.90;;;2.49;100.00;95830.25;4979771;28;20050;-70
2022/01/09 05:20:28;;;;;;;11.77;1.65;;;3.70;99.90;;;2.49;100.00;95845.59;4985516;28;20050;-70
2022/01/09 05:22:56;;;;;;;6.10;1.20;;;3.70;99.90;;;2.52;100.00;95854.91;4990900;28;20112;-70
2022/01/09 05:25:23;;;;;;;9.43;1.90;;;3.80;99.90;;;2.47;100.00;95859.38;4982553;28;20455;-70
2022/01/09 05:27:51;;;;;;;7.63;1.20;;;3.80;99.90;;;2.44;100.00;95847.53;4979927;28;20055;-70
2022/01/09 05:30:18;;;;;;;10.57;1.45;;;3.80;99.90;;;2.46;100.00;95850.84;4992150;28;20051;-70
2022/01/09 05:32:46;;;;;;;5.57;0.95;;;3.70;99.90;;;2.50;100.00;95857.50;4976389;28;20122;-71
2022/01/09 05:35:14;;;;;;;8.82;1.40;;;3.80;99.90;;;2.43;100.00;95865.50;4981339;28;20181;-70
2022/01/09 05:37:42;;;;;;;9.52;1.13;;;3.70;99.90;;;2.46;100.00;95855.13;4982277;28;20462;-70
2022/01/09 05:40:10;;;;;;;6.97;1.15;;;3.80;99.90;;;2.46;100.00;95865.38;4976634;28;20400;-70
2022/01/09 05:42:40;;;;;;;8.02;1.40;;;3.80;99.90;;;2.44;100.00;95874.84;4984698;28;20050;-70
2022/01/09 05:45:09;;;;;;;5.10;1.08;;;3.70;99.90;;;2.42;100.00;95886.88;4975042;28;20054;-70
2022/01/09 05:47:36;;;;;;;7.88;1.50;;;3.80;99.90;;;2.47;100.00;95885.81;4982475;28;20058;-70
2022/01/09 05:50:05;;;;;;;6.80;1.42;;;3.80;99.90;;;2.48;100.00;95882.34;4980435;28;20077;-70
2022/01/09 05:52:33;;;;;;;8.75;1.38;;;3.80;99.90;;;2.51;100.00;95892.50;4979410;28;20043;-70
2022/01/09 05:55:01;;;;;;;6.38;1.38;;;3.80;99.90;;;2.47;100.00;95903.72;5003563;28;20487;-70
2022/01/09 05:57:28;;;;;;;9.77;1.50;;;3.80;99.90;;;2.40;100.00;95919.41;4986638;28;20130;-70
2022/01/09 05:59:56;;;;;;;7.80;1.50;;;3.70;99.90;;;2.36;100.00;95915.28;4973921;28;20312;-70
2022/01/09 06:02:24;;;;;;;4.75;1.00;;;3.60;99.90;;;2.38;100.00;95918.59;4974262;28;20625;-70
2022/01/09 06:04:51;;;;;;;7.72;1.02;;;3.60;99.90;;;2.46;100.00;95919.16;4978850;28;20057;-70
2022/01/09 06:07:18;;;;;;;9.18;1.75;;;3.50;99.90;;;2.38;100.00;95928.84;4974478;28;20051;-70
2022/01/09 06:09:45;;;;;;;7.25;1.10;;;3.60;99.90;;;2.37;100.00;95938.25;4978359;28;20113;-70
2022/01/09 06:12:13;;;;;;;7.32;0.95;;;3.50;99.90;;;2.42;100.00;95927.84;4973308;28;20113;-70
2022/01/09 06:14:41;;;;;;;8.00;1.30;;;3.60;99.90;;;2.39;100.00;95944.13;4977512;28;20052;-71
2022/01/09 06:17:10;;;;;;;7.97;1.38;;;3.60;99.90;;;2.34;100.00;95935.78;4975553;28;20166;-70
2022/01/09 06:19:38;;;;;;;8.68;1.30;;;3.60;99.90;;;2.37;100.00;95937.41;4978807;28;20047;-70
2022/01/09 06:22:05;;;;;;;4.70;1.13;;;3.50;99.90;;;2.35;100.00;95954.56;4986284;28;20240;-70
2022/01/09 06:24:32;;;;;;;5.40;1.35;;;3.50;99.90;;;2.32;100.00;95954.66;4977160;28;20117;-70
2022/01/09 06:27:00;;;;;;;9.50;1.35;;;3.60;99.90;;;2.35;100.00;95950.28;4977989;28;20053;-70
2022/01/09 06:29:33;;;;;;;10.25;1.55;;;3.60;99.90;;;2.26;100.00;95956.56;4976415;28;20042;-70
2022/01/09 06:32:03;;;;;;;7.68;1.27;;;3.50;99.90;;;2.26;100.00;95984.72;4980471;28;20055;-70
2022/01/09 06:34:33;;;;;;;13.07;1.42;;;3.50;99.90;;;2.27;100.00;95962.50;4974495;28;20061;-70
2022/01/09 06:37:02;;;;;;;11.52;1.38;;;3.50;99.90;;;2.26;100.00;95969.38;4997522;28;20426;-70
2022/01/09 06:39:29;;;;;;;7.53;1.42;;;3.50;99.90;;;2.26;100.00;95956.56;4956908;28;20050;-70
2022/01/09 06:41:57;;;;;;;11.52;1.40;;;3.50;99.90;;;2.23;100.00;95986.56;4977956;28;20434;-70
2022/01/09 06:44:25;;;;;;;11.48;1.50;;;3.50;99.90;;;2.21;100.00;95999.41;4974973;28;20292;-70
2022/01/09 06:46:56;;;;;;;14.10;2.00;;;3.50;99.90;;;2.20;100.00;95990.06;4975957;28;20108;-70
2022/01/09 06:49:24;;;;;;;15.15;2.72;;;3.50;99.90;;;2.23;100.00;95981.44;4977608;28;20093;-70
2022/01/09 06:51:52;;;;;;;9.95;1.48;;;3.50;99.90;;;2.28;100.00;95989.78;4973278;28;20047;-71
2022/01/09 06:54:19;;;;;;;13.70;1.38;;;3.50;99.90;;;2.26;100.00;95994.97;4978267;28;20145;-70
2022/01/09 06:56:47;;;;;;;10.23;1.75;;;3.40;99.90;;;2.20;100.00;96013.09;4973857;28;20064;-70
2022/01/09 06:59:14;;;;;;;7.43;1.23;;;3.50;99.90;;;2.23;100.00;96045.44;4976815;28;20050;-70
2022/01/09 07:01:42;;;;;;;14.10;1.75;;;3.50;99.90;;;2.17;100.00;96015.78;4972518;28;20051;-70
2022/01/09 07:04:12;;;;;;;13.20;1.70;;;3.50;99.90;;;2.16;100.00;96013.25;4978423;28;20054;-70
2022/01/09 07:06:39;;;;;;;5.88;1.33;;;3.50;99.90;;;2.19;100.00;96015.69;4980610;28;20051;-70
2022/01/09 07:09:07;;;;;;;10.02;1.58;;;3.50;99.90;;;2.16;100.00;96031.16;4957297;28;20053;-70
2022/01/09 07:11:35;;;;;;;10.45;1.33;;;3.50;99.90;;;2.15;100.00;96014.16;4974957;28;20046;-70
2022/01/09 07:14:03;;;;;;;12.98;1.65;;;3.50;99.90;;;2.19;100.00;96044.72;4977904;28;20046;-70
2022/01/09 07:16:31;;;;;;;14.55;2.20;;;3.50;99.90;;;2.11;100.00;96030.50;4981788;28;20235;-70
2022/01/09 07:19:00;;;;;;;9.40;1.33;;;3.50;99.90;;;2.19;100.00;96031.06;4973392;28;20046;-70
2022/01/09 07:21:28;;;;;;;14.48;1.20;;;3.50;99.90;;;2.19;100.00;96047.28;4975927;28;20050;-70
2022/01/09 07:23:55;;;;;;;12.65;1.42;;;3.60;99.90;;;2.20;100.00;96063.47;4973622;28;20159;-70
2022/01/09 07:26:22;;;;;;;10.57;1.63;;;3.60;99.90;;;2.26;100.00;96066.66;4979226;28;20192;-70
2022/01/09 07:28:50;;;;;;;12.32;1.63;;;3.50;99.90;;;2.17;100.00;96066.13;4975072;28;20057;-70
2022/01/09 07:31:17;;;;;;;10.88;1.13;;;3.50;99.90;;;2.09;100.00;96080.00;4974963;28;20190;-70
2022/01/09 07:33:44;;;;;;;13.43;2.35;;;3.50;99.90;;;2.22;100.00;96084.72;4975280;28;20052;-70
2022/01/09 07:36:12;;;;;;;12.27;1.70;;;3.50;99.90;;;2.14;100.00;96092.66;4972667;28;20573;-70
2022/01/09 07:38:39;;;;;;;12.38;1.38;;;3.50;99.90;;;2.19;100.00;96092.50;4979069;28;20454;-70
2022/01/09 07:41:08;;;;;;;7.57;1.15;;;3.50;99.90;;;2.17;100.00;96081.50;4975058;28;20086;-70
2022/01/09 07:43:40;;;;;;;14.23;2.15;;;3.50;99.90;;;2.17;100.00;96082.31;4978914;28;20054;-70
2022/01/09 07:46:10;;;;;;;18.13;1.40;;;3.50;99.90;;;2.14;100.00;96087.53;4973402;28;20141;-70
2022/01/09 07:48:38;;;;;;;11.50;1.10;;;3.60;99.90;;;2.19;100.00;96120.66;4976406;28;20078;-70
2022/01/09 07:51:06;;;;;;;11.68;2.03;;;3.60;99.90;;;2.16;100.00;96136.13;4973431;28;20062;-70
2022/01/09 07:53:36;;;;;;;9.48;1.55;;;3.50;99.90;;;2.28;100.00;96115.22;4976363;28;20408;-70
2022/01/09 07:56:05;;;;;;;16.27;1.40;;;3.60;99.90;;;2.17;100.00;96135.25;4978501;28;20162;-70
2022/01/09 07:58:33;;;;;;;11.20;2.00;;;3.60;99.90;;;2.21;100.00;96135.09;4970484;28;20106;-70
2022/01/09 08:01:00;;;;;;;15.95;1.90;;;3.70;99.90;;;2.22;100.00;96139.31;4975912;28;20145;-70
2022/01/09 08:03:28;;;;;;;10.15;1.42;;;3.60;99.90;;;2.25;100.00;96159.69;4972182;28;20595;-70
2022/01/09 08:05:56;;;;;;;13.40;1.90;;;3.50;99.90;;;2.28;100.00;96164.72;4977655;28;20053;-70
2022/01/09 08:08:23;;;;;;;13.05;1.15;;;3.70;99.90;;;2.27;100.00;96178.41;4971884;28;20077;-70
2022/01/09 08:10:52;;;;;;;13.80;1.45;;;3.70;99.90;;;2.18;100.00;96171.03;4978071;28;20050;-70
2022/01/09 08:13:20;;;;;;;11.75;2.30;;;3.70;99.90;;;2.27;100.00;96159.66;4972729;28;20050;-70
2022/01/09 08:15:48;;;;;;;12.13;1.52;;;3.60;99.90;;;2.30;100.00;96175.75;4975141;28;20109;-70
2022/01/09 08:18:21;;;;;;;10.75;1.33;;;3.60;99.90;;;2.50;100.00;96172.53;4976405;28;20061;-70
2022/01/09 08:20:48;;;;;;;12.77;2.08;;;3.70;99.90;;;2.30;100.00;96173.19;4992104;28;20138;-70
2022/01/09 08:23:17;;;;;;;19.05;1.80;;;3.70;99.90;;;2.30;100.00;96174.91;4976209;28;20145;-70
2022/01/09 08:25:45;;;;;;;14.02;1.60;;;3.70;99.90;;;2.31;100.00;96174.03;4976232;28;20049;-70
2022/01/09 08:28:16;;;;;;;14.77;2.22;;;3.70;99.90;;;2.34;100.00;96183.34;4975895;28;20061;-70
2022/01/09 08:30:43;;;;;;;14.43;2.05;;;3.80;99.90;;;2.22;100.00;96184.56;4970576;28;20046;-70
2022/01/09 08:33:11;;;;;;;9.68;1.92;;;3.70;99.90;;;2.29;100.00;96188.59;4981988;28;20054;-70
2022/01/09 08:35:38;;;;;;;9.70;1.58;;;3.60;99.90;;;2.24;100.00;96200.72;4977069;28;20269;-70
2022/01/09 08:38:06;;;;;;;10.38;1.50;;;3.60;99.90;;;2.39;100.00;96195.09;4980757;28;20058;-70
2022/01/09 08:40:34;;;;;;;15.30;1.50;;;3.60;99.90;;;2.52;100.00;96203.22;4976823;28;20134;-71
2022/01/09 08:43:03;;;;;;;13.13;1.58;;;3.80;99.90;;;2.41;100.00;96202.72;4977698;28;20051;-70
2022/01/09 08:45:31;;;;;;;16.77;2.30;;;3.80;99.90;;;2.42;100.00;96212.94;4981058;28;20059;-70
2022/01/09 08:47:58;;;;;;;10.50;1.70;;;3.90;99.90;;;2.45;100.00;96214.56;4975867;28;20062;-70
2022/01/09 08:50:25;;;;;;;12.48;1.65;;;3.80;99.90;;;2.51;100.00;96230.56;4981284;28;20121;-70
2022/01/09 08:52:53;;;;;;;15.38;2.03;;;3.90;99.90;;;2.47;100.00;96217.91;4975163;28;20138;-70
2022/01/09 08:55:24;;;;;;;11.85;1.83;;;3.90;99.90;;;2.45;100.00;96224.81;4982993;28;20110;-70
2022/01/09 08:57:51;;;;;;;12.65;2.63;;;3.90;99.90;;;2.49;100.00;96228.94;4975094;28;20070;-70
2022/01/09 09:00:18;;;;;;;10.93;1.70;;;3.90;99.90;;;2.58;100.00;96222.66;4978432;28;20154;-70
2022/01/09 09:02:46;;;;;;;12.48;1.95;;;3.90;99.90;;;2.45;100.00;96222.25;4983480;28;20086;-70
2022/01/09 09:05:14;;;;;;;16.48;2.28;;;3.90;99.90;;;2.42;100.00;96228.31;4986131;28;20137;-71
2022/01/09 09:07:41;;;;;;;17.38;2.08;;;3.90;99.90;;;2.54;100.00;96232.19;4982497;28;20050;-70
2022/01/09 09:10:10;;;;;;;17.20;2.03;;;3.90;99.90;;;2.41;100.00;96225.78;4990359;28;20057;-70
2022/01/09 09:12:37;;;;;;;11.18;1.80;;;3.90;99.90;;;2.44;100.00;96236.78;4981058;28;20198;-70
2022/01/09 09:15:06;;;;;;;20.65;2.53;;;3.90;99.90;;;2.41;100.00;96243.72;4977172;28;20050;-71
2022/01/09 09:17:35;;;;;;;17.77;3.33;;;4.00;99.90;;;2.42;100.00;96253.06;4979113;28;20046;-70
2022/01/09 09:20:05;;;;;;;11.10;3.22;;;4.00;99.90;;;2.51;100.00;96257.91;4974488;28;20141;-70
2022/01/09 09:22:35;;;;;;;14.60;2.85;;;4.00;99.90;;;2.59;100.00;96249.97;4995186;28;20054;-70
2022/01/09 09:25:04;;;;;;;17.27;2.38;;;3.90;99.90;;;2.38;100.00;96264.31;4975554;28;20101;-70
2022/01/09 09:27:32;;;;;;;11.05;2.50;;;3.90;99.90;;;2.48;100.00;96266.50;4977201;28;20096;-70
2022/01/09 09:30:07;;;;;;;14.50;2.97;;;3.90;99.90;;;2.59;100.00;96273.84;4976018;28;20102;-70
2022/01/09 09:32:35;;;;;;;17.35;2.83;;;4.00;99.90;;;2.52;100.00;96269.81;4973967;28;20121;-70
2022/01/09 09:35:04;;;;;;;11.32;1.80;;;4.00;99.90;;;2.62;100.00;96285.72;4996266;28;20434;-70
2022/01/09 09:37:32;;;;;;;11.30;2.08;;;3.90;99.90;;;2.60;100.00;96287.50;4976612;28;20282;-70
2022/01/09 09:39:59;;;;;;;16.73;2.75;;;4.00;99.90;;;2.60;100.00;96298.59;4981497;28;20050;-71
2022/01/09 09:42:27;;;;;;;12.73;2.17;;;4.00;99.90;;;2.65;100.00;96275.41;4976774;28;20456;-70
2022/01/09 09:45:00;;;;;;;12.45;1.75;;;4.10;99.90;;;2.50;100.00;96290.34;4973939;28;20392;-70
2022/01/09 09:47:29;;;;;;;18.83;4.32;;;4.10;99.90;;;2.51;100.00;96293.75;4972894;28;20491;-70
2022/01/09 09:49:57;;;;;;;10.38;1.50;;;4.10;99.90;;;2.68;100.00;96306.88;4979919;28;20130;-68
2022/01/09 09:52:25;;;;;;;8.93;2.25;;;4.20;99.90;;;2.88;100.00;96288.28;4974204;28;20054;-69
2022/01/09 09:54:54;;;;;;;10.20;1.00;;;4.40;99.90;;;2.76;100.00;96296.38;4974492;28;20077;-69
2022/01/09 09:57:23;;;;;;;10.73;1.60;;;4.30;99.90;;;2.58;100.00;96300.38;4977372;28;20058;-69
2022/01/09 10:00:13;;;;;;;7.63;1.50;;;4.30;99.90;;;2.63;100.00;96301.06;4987776;28;20105;-69
2022/01/09 10:02:56;;;;;;;10.52;1.67;;;4.20;99.90;;;2.69;100.00;96302.56;4973545;28;20578;-68
2022/01/09 10:05:28;;;;;;;6.90;1.02;;;4.20;99.90;;;2.56;100.00;96293.63;4973104;28;20062;-68
2022/01/09 10:08:12;;;;;;;12.02;1.80;;;4.00;99.90;;;2.37;100.00;96313.81;4978938;28;20088;-69
2022/01/09 10:10:40;;;;;;;9.45;1.65;;;4.00;99.90;;;2.58;100.00;96307.19;4973997;28;20043;-68
2022/01/09 10:13:19;;;;;;;4.05;1.00;;;4.10;99.90;;;2.51;100.00;96320.22;4982647;28;20189;-69
2022/01/09 10:15:57;;;;;;;11.48;1.92;;;4.00;99.90;;;2.50;100.00;96317.69;4972033;28;20123;-69
2022/01/09 10:18:44;;;;;;;8.52;1.00;;;4.00;99.90;;;2.43;100.00;96317.03;4977839;28;20053;-69
2022/01/09 10:21:22;;;;;;;9.60;1.38;;;3.90;99.90;;;2.23;100.00;96314.25;4978524;28;20061;-68
2022/01/09 10:24:08;;;;;;;10.25;2.13;;;3.80;99.90;;;2.17;100.00;96319.56;4977675;28;20082;-68
2022/01/09 10:26:48;;;;;;;8.55;1.10;;;3.70;99.90;;;2.29;100.00;96314.06;4990420;28;20581;-68
2022/01/09 10:29:20;;;;;;;5.18;1.00;;;3.60;99.90;;;2.14;100.00;96345.22;4978983;28;20133;-69
2022/01/09 10:31:51;;;;;;;5.07;1.50;;;3.50;99.90;;;2.07;100.00;96336.88;4973783;28;20134;-68
2022/01/09 10:34:19;;;;;;;4.30;1.10;;;3.50;99.90;;;2.13;100.00;96333.31;4991136;28;20498;-68
2022/01/09 10:36:51;;;;;;;5.35;1.13;;;3.60;99.90;;;2.39;100.00;96335.94;4975357;28;20172;-68